sensor_id;sensor_type;location;lat;lon;timestamp;P1;durP1;ratioP1;P2;durP2;ratioP2
33714;SDS011;20043;50.998;4.754;2023-03-23T00:02:19;4.38;;;3.17;;
33714;SDS011;20043;50.998;4.754;2023-03-23T00:04:54;6.05;;;3.00;;
33714;SDS011;20043;50.998;4.754;2023-03-23T00:07:20;5.28;;;3.30;;
33714;SDS011;20043;50.998;4.754;2023-03-23T00:09:48;5.13;;;3.22;;
33714;SDS011;20043;50.998;4.754;2023-03-23T00:12:20;4.97;;;3.30;;
33714;SDS011;20043;50.998;4.754;2023-03-23T00:14:57;6.65;;;3.72;;
33714;SDS011;20043;50.998;4.754;2023-03-23T00:17:31;5.88;;;3.40;;
33714;SDS011;20043;50.998;4.754;2023-03-23T00:20:00;5.70;;;3.70;;
33714;SDS011;20043;50.998;4.754;2023-03-23T00:22:28;6.28;;;3.42;;
33714;SDS011;20043;50.998;4.754;2023-03-23T00:24:54;7.43;;;3.72;;
33714;SDS011;20043;50.998;4.754;2023-03-23T00:27:20;7.28;;;3.85;;
33714;SDS011;20043;50.998;4.754;2023-03-23T00:29:50;6.85;;;3.50;;
33714;SDS011;20043;50.998;4.754;2023-03-23T00:32:22;6.30;;;3.78;;
33714;SDS011;20043;50.998;4.754;2023-03-23T00:34:55;6.43;;;3.65;;
33714;SDS011;20043;50.998;4.754;2023-03-23T00:37:23;7.82;;;3.47;;
33714;SDS011;20043;50.998;4.754;2023-03-23T00:39:49;4.97;;;3.55;;
33714;SDS011;20043;50.998;4.754;2023-03-23T00:42:16;4.75;;;3.28;;
33714;SDS011;20043;50.998;4.754;2023-03-23T00:44:42;6.88;;;3.83;;
33714;SDS011;20043;50.998;4.754;2023-03-23T00:47:11;8.18;;;3.50;;
33714;SDS011;20043;50.998;4.754;2023-03-23T00:49:37;7.50;;;3.53;;
33714;SDS011;20043;50.998;4.754;2023-03-23T00:52:04;5.43;;;3.80;;
33714;SDS011;20043;50.998;4.754;2023-03-23T00:54:31;6.65;;;3.60;;
33714;SDS011;20043;50.998;4.754;2023-03-23T00:56:57;6.40;;;3.97;;
33714;SDS011;20043;50.998;4.754;2023-03-23T00:59:23;6.88;;;3.45;;
33714;SDS011;20043;50.998;4.754;2023-03-23T01:01:48;5.10;;;3.60;;
33714;SDS011;20043;50.998;4.754;2023-03-23T01:04:15;6.57;;;3.53;;
33714;SDS011;20043;50.998;4.754;2023-03-23T01:06:41;5.32;;;3.83;;
33714;SDS011;20043;50.998;4.754;2023-03-23T01:09:10;5.53;;;3.42;;
33714;SDS011;20043;50.998;4.754;2023-03-23T01:11:42;8.38;;;3.63;;
33714;SDS011;20043;50.998;4.754;2023-03-23T01:14:11;6.22;;;3.50;;
33714;SDS011;20043;50.998;4.754;2023-03-23T01:16:38;7.10;;;3.75;;
33714;SDS011;20043;50.998;4.754;2023-03-23T01:19:04;5.43;;;3.65;;
33714;SDS011;20043;50.998;4.754;2023-03-23T01:21:30;6.63;;;3.55;;
33714;SDS011;20043;50.998;4.754;2023-03-23T01:23:56;7.63;;;3.70;;
33714;SDS011;20043;50.998;4.754;2023-03-23T01:26:22;6.38;;;3.55;;
33714;SDS011;20043;50.998;4.754;2023-03-23T01:28:49;4.07;;;3.38;;
33714;SDS011;20043;50.998;4.754;2023-03-23T01:31:16;11.73;;;3.30;;
33714;SDS011;20043;50.998;4.754;2023-03-23T01:33:44;6.32;;;3.45;;
33714;SDS011;20043;50.998;4.754;2023-03-23T01:36:13;5.55;;;3.60;;
33714;SDS011;20043;50.998;4.754;2023-03-23T01:38:41;5.53;;;3.42;;
33714;SDS011;20043;50.998;4.754;2023-03-23T01:41:08;6.22;;;3.50;;
33714;SDS011;20043;50.998;4.754;2023-03-23T01:43:53;5.78;;;3.20;;
33714;SDS011;20043;50.998;4.754;2023-03-23T01:46:25;6.40;;;3.33;;
33714;SDS011;20043;50.998;4.754;2023-03-23T01:48:52;5.18;;;3.55;;
33714;SDS011;20043;50.998;4.754;2023-03-23T01:51:19;5.47;;;3.53;;
33714;SDS011;20043;50.998;4.754;2023-03-23T01:53:46;4.32;;;3.28;;
33714;SDS011;20043;50.998;4.754;2023-03-23T01:56:17;7.07;;;3.20;;
33714;SDS011;20043;50.998;4.754;2023-03-23T01:58:52;8.43;;;3.55;;
33714;SDS011;20043;50.998;4.754;2023-03-23T02:01:20;6.10;;;3.20;;
33714;SDS011;20043;50.998;4.754;2023-03-23T02:03:46;6.47;;;3.55;;
33714;SDS011;20043;50.998;4.754;2023-03-23T02:06:13;5.63;;;3.67;;
33714;SDS011;20043;50.998;4.754;2023-03-23T02:08:39;4.85;;;2.97;;
33714;SDS011;20043;50.998;4.754;2023-03-23T02:11:18;7.68;;;3.40;;
33714;SDS011;20043;50.998;4.754;2023-03-23T02:13:46;5.72;;;3.25;;
33714;SDS011;20043;50.998;4.754;2023-03-23T02:16:29;9.05;;;3.67;;
33714;SDS011;20043;50.998;4.754;2023-03-23T02:35:52;6.38;;;3.38;;
33714;SDS011;20043;50.998;4.754;2023-03-23T02:41:36;8.88;;;3.42;;
33714;SDS011;20043;50.998;4.754;2023-03-23T02:44:07;6.50;;;3.20;;
33714;SDS011;20043;50.998;4.754;2023-03-23T02:46:33;4.82;;;2.90;;
33714;SDS011;20043;50.998;4.754;2023-03-23T02:49:00;4.60;;;2.78;;
33714;SDS011;20043;50.998;4.754;2023-03-23T02:51:28;6.60;;;3.10;;
33714;SDS011;20043;50.998;4.754;2023-03-23T02:53:54;8.07;;;3.10;;
33714;SDS011;20043;50.998;4.754;2023-03-23T02:56:22;8.93;;;3.08;;
33714;SDS011;20043;50.998;4.754;2023-03-23T02:58:49;4.13;;;2.33;;
33714;SDS011;20043;50.998;4.754;2023-03-23T03:03:59;4.60;;;2.75;;
33714;SDS011;20043;50.998;4.754;2023-03-23T03:12:34;7.38;;;2.17;;
33714;SDS011;20043;50.998;4.754;2023-03-23T03:17:55;5.90;;;2.30;;
33714;SDS011;20043;50.998;4.754;2023-03-23T03:20:27;7.32;;;2.40;;
33714;SDS011;20043;50.998;4.754;2023-03-23T03:22:54;9.90;;;2.05;;
33714;SDS011;20043;50.998;4.754;2023-03-23T03:25:22;7.35;;;2.30;;
33714;SDS011;20043;50.998;4.754;2023-03-23T03:27:48;8.75;;;2.22;;
33714;SDS011;20043;50.998;4.754;2023-03-23T03:30:17;5.65;;;2.20;;
33714;SDS011;20043;50.998;4.754;2023-03-23T03:32:49;7.13;;;2.28;;
33714;SDS011;20043;50.998;4.754;2023-03-23T03:35:18;6.82;;;1.92;;
33714;SDS011;20043;50.998;4.754;2023-03-23T03:37:46;9.90;;;2.20;;
33714;SDS011;20043;50.998;4.754;2023-03-23T03:40:14;9.98;;;2.15;;
33714;SDS011;20043;50.998;4.754;2023-03-23T03:42:42;6.70;;;2.08;;
33714;SDS011;20043;50.998;4.754;2023-03-23T03:45:11;8.50;;;1.95;;
33714;SDS011;20043;50.998;4.754;2023-03-23T03:47:39;9.40;;;2.47;;
33714;SDS011;20043;50.998;4.754;2023-03-23T03:50:05;10.40;;;2.20;;
33714;SDS011;20043;50.998;4.754;2023-03-23T03:52:31;12.43;;;2.40;;
33714;SDS011;20043;50.998;4.754;2023-03-23T03:54:57;8.52;;;2.03;;
33714;SDS011;20043;50.998;4.754;2023-03-23T03:57:23;7.53;;;2.25;;
33714;SDS011;20043;50.998;4.754;2023-03-23T03:59:49;9.55;;;2.47;;
33714;SDS011;20043;50.998;4.754;2023-03-23T04:02:15;7.70;;;2.03;;
33714;SDS011;20043;50.998;4.754;2023-03-23T04:04:45;7.97;;;2.22;;
33714;SDS011;20043;50.998;4.754;2023-03-23T04:07:11;7.55;;;2.45;;
33714;SDS011;20043;50.998;4.754;2023-03-23T04:09:38;9.27;;;2.38;;
33714;SDS011;20043;50.998;4.754;2023-03-23T04:12:05;8.10;;;2.60;;
33714;SDS011;20043;50.998;4.754;2023-03-23T04:14:31;7.70;;;2.20;;
33714;SDS011;20043;50.998;4.754;2023-03-23T04:16:56;8.02;;;2.67;;
33714;SDS011;20043;50.998;4.754;2023-03-23T04:19:24;6.10;;;2.13;;
33714;SDS011;20043;50.998;4.754;2023-03-23T04:21:49;8.13;;;2.60;;
33714;SDS011;20043;50.998;4.754;2023-03-23T04:24:15;8.45;;;2.30;;
33714;SDS011;20043;50.998;4.754;2023-03-23T04:26:41;6.10;;;2.70;;
33714;SDS011;20043;50.998;4.754;2023-03-23T04:29:10;9.68;;;2.90;;
33714;SDS011;20043;50.998;4.754;2023-03-23T04:31:38;6.55;;;2.50;;
33714;SDS011;20043;50.998;4.754;2023-03-23T04:34:04;7.13;;;2.50;;
33714;SDS011;20043;50.998;4.754;2023-03-23T04:36:29;12.27;;;2.58;;
33714;SDS011;20043;50.998;4.754;2023-03-23T04:38:55;10.05;;;2.58;;
33714;SDS011;20043;50.998;4.754;2023-03-23T04:41:21;10.85;;;2.97;;
33714;SDS011;20043;50.998;4.754;2023-03-23T04:43:48;10.10;;;2.63;;
33714;SDS011;20043;50.998;4.754;2023-03-23T04:46:17;8.88;;;2.60;;
33714;SDS011;20043;50.998;4.754;2023-03-23T04:48:44;8.88;;;2.45;;
33714;SDS011;20043;50.998;4.754;2023-03-23T04:51:10;10.05;;;2.53;;
33714;SDS011;20043;50.998;4.754;2023-03-23T04:53:39;9.05;;;2.30;;
33714;SDS011;20043;50.998;4.754;2023-03-23T04:56:06;13.40;;;2.70;;
33714;SDS011;20043;50.998;4.754;2023-03-23T04:58:32;12.32;;;2.40;;
33714;SDS011;20043;50.998;4.754;2023-03-23T05:00:58;9.95;;;2.03;;
33714;SDS011;20043;50.998;4.754;2023-03-23T05:03:25;8.15;;;2.25;;
33714;SDS011;20043;50.998;4.754;2023-03-23T05:05:52;15.30;;;2.50;;
33714;SDS011;20043;50.998;4.754;2023-03-23T05:08:21;11.30;;;2.67;;
33714;SDS011;20043;50.998;4.754;2023-03-23T05:10:53;11.32;;;2.20;;
33714;SDS011;20043;50.998;4.754;2023-03-23T05:13:20;10.68;;;2.47;;
33714;SDS011;20043;50.998;4.754;2023-03-23T05:15:46;15.40;;;2.33;;
33714;SDS011;20043;50.998;4.754;2023-03-23T05:18:12;7.00;;;2.15;;
33714;SDS011;20043;50.998;4.754;2023-03-23T05:20:39;14.95;;;2.58;;
33714;SDS011;20043;50.998;4.754;2023-03-23T05:23:06;9.90;;;2.40;;
33714;SDS011;20043;50.998;4.754;2023-03-23T05:25:33;9.05;;;2.35;;
33714;SDS011;20043;50.998;4.754;2023-03-23T05:28:02;12.80;;;2.35;;
33714;SDS011;20043;50.998;4.754;2023-03-23T05:30:28;9.13;;;2.15;;
33714;SDS011;20043;50.998;4.754;2023-03-23T05:32:54;10.90;;;2.38;;
33714;SDS011;20043;50.998;4.754;2023-03-23T05:35:20;13.07;;;2.67;;
33714;SDS011;20043;50.998;4.754;2023-03-23T05:37:46;9.45;;;2.55;;
33714;SDS011;20043;50.998;4.754;2023-03-23T05:40:12;14.50;;;2.47;;
33714;SDS011;20043;50.998;4.754;2023-03-23T05:42:38;7.40;;;1.92;;
33714;SDS011;20043;50.998;4.754;2023-03-23T05:45:06;8.40;;;2.40;;
33714;SDS011;20043;50.998;4.754;2023-03-23T05:47:34;8.45;;;1.65;;
33714;SDS011;20043;50.998;4.754;2023-03-23T05:50:00;7.50;;;1.90;;
33714;SDS011;20043;50.998;4.754;2023-03-23T05:52:26;5.32;;;1.85;;
33714;SDS011;20043;50.998;4.754;2023-03-23T05:54:52;11.23;;;2.00;;
33714;SDS011;20043;50.998;4.754;2023-03-23T05:57:18;6.53;;;1.60;;
33714;SDS011;20043;50.998;4.754;2023-03-23T05:59:47;6.53;;;2.05;;
33714;SDS011;20043;50.998;4.754;2023-03-23T06:02:13;6.20;;;1.83;;
33714;SDS011;20043;50.998;4.754;2023-03-23T06:04:39;8.40;;;1.85;;
33714;SDS011;20043;50.998;4.754;2023-03-23T06:07:06;7.40;;;2.20;;
33714;SDS011;20043;50.998;4.754;2023-03-23T06:09:32;9.10;;;2.13;;
33714;SDS011;20043;50.998;4.754;2023-03-23T06:11:57;6.93;;;2.10;;
33714;SDS011;20043;50.998;4.754;2023-03-23T06:14:23;6.00;;;2.13;;
33714;SDS011;20043;50.998;4.754;2023-03-23T06:16:49;8.55;;;2.10;;
33714;SDS011;20043;50.998;4.754;2023-03-23T06:19:15;5.25;;;1.95;;
33714;SDS011;20043;50.998;4.754;2023-03-23T06:21:41;6.97;;;1.98;;
33714;SDS011;20043;50.998;4.754;2023-03-23T06:24:07;6.45;;;2.00;;
33714;SDS011;20043;50.998;4.754;2023-03-23T06:26:34;8.05;;;1.90;;
33714;SDS011;20043;50.998;4.754;2023-03-23T06:29:03;7.32;;;1.95;;
33714;SDS011;20043;50.998;4.754;2023-03-23T06:31:35;12.05;;;2.33;;
33714;SDS011;20043;50.998;4.754;2023-03-23T06:34:07;10.73;;;2.15;;
33714;SDS011;20043;50.998;4.754;2023-03-23T06:36:35;7.40;;;2.30;;
33714;SDS011;20043;50.998;4.754;2023-03-23T06:39:01;9.07;;;2.45;;
33714;SDS011;20043;50.998;4.754;2023-03-23T06:41:29;5.20;;;1.88;;
33714;SDS011;20043;50.998;4.754;2023-03-23T06:43:56;9.52;;;2.80;;
33714;SDS011;20043;50.998;4.754;2023-03-23T06:46:22;9.15;;;2.45;;
33714;SDS011;20043;50.998;4.754;2023-03-23T06:48:47;8.50;;;2.30;;
33714;SDS011;20043;50.998;4.754;2023-03-23T06:51:14;10.02;;;2.55;;
33714;SDS011;20043;50.998;4.754;2023-03-23T06:53:40;7.95;;;2.45;;
33714;SDS011;20043;50.998;4.754;2023-03-23T06:56:06;9.10;;;2.33;;
33714;SDS011;20043;50.998;4.754;2023-03-23T06:58:32;9.48;;;2.50;;
33714;SDS011;20043;50.998;4.754;2023-03-23T07:00:58;11.55;;;2.40;;
33714;SDS011;20043;50.998;4.754;2023-03-23T07:03:24;12.18;;;2.63;;
33714;SDS011;20043;50.998;4.754;2023-03-23T07:05:51;11.57;;;2.97;;
33714;SDS011;20043;50.998;4.754;2023-03-23T07:08:16;10.75;;;3.28;;
33714;SDS011;20043;50.998;4.754;2023-03-23T07:10:42;9.40;;;2.38;;
33714;SDS011;20043;50.998;4.754;2023-03-23T07:13:15;3.60;;;1.13;;
33714;SDS011;20043;50.998;4.754;2023-03-23T07:15:41;5.10;;;1.20;;
33714;SDS011;20043;50.998;4.754;2023-03-23T07:18:06;4.22;;;0.73;;
33714;SDS011;20043;50.998;4.754;2023-03-23T07:20:32;6.72;;;0.90;;
33714;SDS011;20043;50.998;4.754;2023-03-23T07:22:57;5.82;;;1.10;;
33714;SDS011;20043;50.998;4.754;2023-03-23T07:25:23;6.72;;;1.05;;
33714;SDS011;20043;50.998;4.754;2023-03-23T07:27:48;8.55;;;1.20;;
33714;SDS011;20043;50.998;4.754;2023-03-23T07:30:14;2.85;;;1.20;;
33714;SDS011;20043;50.998;4.754;2023-03-23T07:32:40;3.85;;;1.33;;
33714;SDS011;20043;50.998;4.754;2023-03-23T07:35:07;6.28;;;1.10;;
33714;SDS011;20043;50.998;4.754;2023-03-23T07:37:34;4.70;;;1.13;;
33714;SDS011;20043;50.998;4.754;2023-03-23T07:40:00;4.70;;;1.10;;
33714;SDS011;20043;50.998;4.754;2023-03-23T07:42:39;7.30;;;1.30;;
33714;SDS011;20043;50.998;4.754;2023-03-23T07:45:08;4.38;;;1.30;;
33714;SDS011;20043;50.998;4.754;2023-03-23T07:47:38;2.28;;;1.00;;
33714;SDS011;20043;50.998;4.754;2023-03-23T07:50:05;3.35;;;1.45;;
33714;SDS011;20043;50.998;4.754;2023-03-23T07:52:31;7.85;;;1.00;;
33714;SDS011;20043;50.998;4.754;2023-03-23T07:54:57;5.72;;;1.17;;
33714;SDS011;20043;50.998;4.754;2023-03-23T07:57:23;5.68;;;1.20;;
33714;SDS011;20043;50.998;4.754;2023-03-23T07:59:49;3.38;;;0.90;;
33714;SDS011;20043;50.998;4.754;2023-03-23T08:02:14;6.18;;;1.02;;
33714;SDS011;20043;50.998;4.754;2023-03-23T08:04:40;6.20;;;1.20;;
33714;SDS011;20043;50.998;4.754;2023-03-23T08:07:07;5.88;;;1.15;;
33714;SDS011;20043;50.998;4.754;2023-03-23T08:09:33;2.17;;;0.88;;
33714;SDS011;20043;50.998;4.754;2023-03-23T08:11:58;5.60;;;1.42;;
33714;SDS011;20043;50.998;4.754;2023-03-23T08:14:24;4.18;;;0.95;;
33714;SDS011;20043;50.998;4.754;2023-03-23T08:16:52;4.38;;;1.08;;
33714;SDS011;20043;50.998;4.754;2023-03-23T08:19:20;6.78;;;1.35;;
33714;SDS011;20043;50.998;4.754;2023-03-23T08:21:46;5.20;;;1.27;;
33714;SDS011;20043;50.998;4.754;2023-03-23T08:24:11;4.03;;;1.13;;
33714;SDS011;20043;50.998;4.754;2023-03-23T08:26:38;7.35;;;1.30;;
33714;SDS011;20043;50.998;4.754;2023-03-23T08:29:03;5.95;;;1.13;;
33714;SDS011;20043;50.998;4.754;2023-03-23T08:31:29;5.30;;;1.23;;
33714;SDS011;20043;50.998;4.754;2023-03-23T08:33:55;6.53;;;1.90;;
33714;SDS011;20043;50.998;4.754;2023-03-23T08:36:23;8.00;;;1.60;;
33714;SDS011;20043;50.998;4.754;2023-03-23T08:38:49;3.10;;;1.27;;
33714;SDS011;20043;50.998;4.754;2023-03-23T08:41:17;5.57;;;1.52;;
33714;SDS011;20043;50.998;4.754;2023-03-23T08:43:42;4.63;;;1.67;;
33714;SDS011;20043;50.998;4.754;2023-03-23T08:46:08;9.27;;;2.00;;
33714;SDS011;20043;50.998;4.754;2023-03-23T08:48:36;5.85;;;1.80;;
33714;SDS011;20043;50.998;4.754;2023-03-23T08:51:03;5.70;;;2.33;;
33714;SDS011;20043;50.998;4.754;2023-03-23T08:53:31;6.32;;;2.25;;
33714;SDS011;20043;50.998;4.754;2023-03-23T08:56:08;7.22;;;2.00;;
33714;SDS011;20043;50.998;4.754;2023-03-23T08:58:36;10.63;;;1.90;;
33714;SDS011;20043;50.998;4.754;2023-03-23T09:01:02;6.00;;;1.52;;
33714;SDS011;20043;50.998;4.754;2023-03-23T09:03:31;5.57;;;1.90;;
33714;SDS011;20043;50.998;4.754;2023-03-23T09:06:00;8.60;;;2.35;;
33714;SDS011;20043;50.998;4.754;2023-03-23T09:08:28;5.97;;;1.73;;
33714;SDS011;20043;50.998;4.754;2023-03-23T09:10:55;9.05;;;1.65;;
33714;SDS011;20043;50.998;4.754;2023-03-23T09:13:23;5.10;;;1.60;;
33714;SDS011;20043;50.998;4.754;2023-03-23T09:15:49;8.50;;;2.05;;
33714;SDS011;20043;50.998;4.754;2023-03-23T09:18:16;4.78;;;1.30;;
33714;SDS011;20043;50.998;4.754;2023-03-23T09:20:42;9.43;;;1.83;;
33714;SDS011;20043;50.998;4.754;2023-03-23T09:23:08;4.35;;;1.35;;
33714;SDS011;20043;50.998;4.754;2023-03-23T09:25:34;5.15;;;1.52;;
33714;SDS011;20043;50.998;4.754;2023-03-23T09:28:00;6.70;;;1.77;;
33714;SDS011;20043;50.998;4.754;2023-03-23T09:30:29;5.00;;;1.85;;
33714;SDS011;20043;50.998;4.754;2023-03-23T09:32:58;6.47;;;1.80;;
33714;SDS011;20043;50.998;4.754;2023-03-23T09:35:26;5.05;;;1.83;;
33714;SDS011;20043;50.998;4.754;2023-03-23T09:37:53;7.40;;;2.05;;
33714;SDS011;20043;50.998;4.754;2023-03-23T09:40:23;8.80;;;2.33;;
33714;SDS011;20043;50.998;4.754;2023-03-23T09:43:12;10.02;;;2.00;;
33714;SDS011;20043;50.998;4.754;2023-03-23T09:45:51;5.90;;;1.48;;
33714;SDS011;20043;50.998;4.754;2023-03-23T09:51:18;8.23;;;1.85;;
33714;SDS011;20043;50.998;4.754;2023-03-23T09:53:54;6.97;;;1.90;;
33714;SDS011;20043;50.998;4.754;2023-03-23T09:56:23;6.13;;;1.30;;
33714;SDS011;20043;50.998;4.754;2023-03-23T09:59:00;5.22;;;1.65;;
33714;SDS011;20043;50.998;4.754;2023-03-23T10:01:39;7.22;;;2.00;;
33714;SDS011;20043;50.998;4.754;2023-03-23T10:07:13;6.60;;;1.70;;
33714;SDS011;20043;50.998;4.754;2023-03-23T10:09:42;4.95;;;1.60;;
33714;SDS011;20043;50.998;4.754;2023-03-23T10:20:53;3.63;;;1.55;;
33714;SDS011;20043;50.998;4.754;2023-03-23T10:23:41;4.65;;;1.65;;
33714;SDS011;20043;50.998;4.754;2023-03-23T10:28:50;4.53;;;2.03;;
33714;SDS011;20043;50.998;4.754;2023-03-23T10:31:21;5.70;;;1.67;;
33714;SDS011;20043;50.998;4.754;2023-03-23T10:33:51;4.57;;;1.45;;
33714;SDS011;20043;50.998;4.754;2023-03-23T10:36:37;5.55;;;1.95;;
33714;SDS011;20043;50.998;4.754;2023-03-23T10:39:10;5.57;;;1.80;;
33714;SDS011;20043;50.998;4.754;2023-03-23T10:41:40;3.67;;;1.92;;
33714;SDS011;20043;50.998;4.754;2023-03-23T10:44:24;5.40;;;1.55;;
33714;SDS011;20043;50.998;4.754;2023-03-23T10:46:53;6.75;;;2.00;;
33714;SDS011;20043;50.998;4.754;2023-03-23T10:49:27;4.93;;;1.90;;
33714;SDS011;20043;50.998;4.754;2023-03-23T10:55:18;6.50;;;2.03;;
33714;SDS011;20043;50.998;4.754;2023-03-23T10:58:07;4.43;;;1.95;;
33714;SDS011;20043;50.998;4.754;2023-03-23T11:00:39;9.00;;;2.10;;
33714;SDS011;20043;50.998;4.754;2023-03-23T11:05:43;5.30;;;1.85;;
33714;SDS011;20043;50.998;4.754;2023-03-23T11:08:16;4.60;;;1.88;;
33714;SDS011;20043;50.998;4.754;2023-03-23T11:10:51;6.18;;;2.00;;
33714;SDS011;20043;50.998;4.754;2023-03-23T11:13:20;7.43;;;1.90;;
33714;SDS011;20043;50.998;4.754;2023-03-23T11:15:47;6.10;;;1.75;;
33714;SDS011;20043;50.998;4.754;2023-03-23T11:18:21;6.40;;;2.15;;
33714;SDS011;20043;50.998;4.754;2023-03-23T11:20:51;8.73;;;2.90;;
33714;SDS011;20043;50.998;4.754;2023-03-23T11:23:21;7.63;;;2.15;;
33714;SDS011;20043;50.998;4.754;2023-03-23T11:25:50;10.50;;;2.70;;
33714;SDS011;20043;50.998;4.754;2023-03-23T11:28:29;12.55;;;2.50;;
33714;SDS011;20043;50.998;4.754;2023-03-23T11:31:00;8.88;;;2.47;;
33714;SDS011;20043;50.998;4.754;2023-03-23T11:33:52;11.32;;;2.38;;
33714;SDS011;20043;50.998;4.754;2023-03-23T11:36:20;8.50;;;2.47;;
33714;SDS011;20043;50.998;4.754;2023-03-23T11:38:51;10.38;;;2.33;;
33714;SDS011;20043;50.998;4.754;2023-03-23T11:41:21;9.18;;;2.33;;
33714;SDS011;20043;50.998;4.754;2023-03-23T11:43:50;12.63;;;2.88;;
33714;SDS011;20043;50.998;4.754;2023-03-23T11:48:59;10.35;;;2.65;;
33714;SDS011;20043;50.998;4.754;2023-03-23T11:54:26;9.50;;;2.53;;
33714;SDS011;20043;50.998;4.754;2023-03-23T11:56:57;10.32;;;3.40;;
33714;SDS011;20043;50.998;4.754;2023-03-23T11:59:27;10.43;;;2.45;;
33714;SDS011;20043;50.998;4.754;2023-03-23T12:10:26;12.80;;;3.00;;
33714;SDS011;20043;50.998;4.754;2023-03-23T12:15:57;9.70;;;2.60;;
33714;SDS011;20043;50.998;4.754;2023-03-23T12:30:19;7.90;;;2.40;;
33714;SDS011;20043;50.998;4.754;2023-03-23T12:33:18;8.70;;;1.95;;
33714;SDS011;20043;50.998;4.754;2023-03-23T12:39:05;9.57;;;2.13;;
33714;SDS011;20043;50.998;4.754;2023-03-23T12:41:54;9.98;;;2.05;;
33714;SDS011;20043;50.998;4.754;2023-03-23T12:44:44;7.90;;;2.10;;
33714;SDS011;20043;50.998;4.754;2023-03-23T12:47:16;8.73;;;2.40;;
33714;SDS011;20043;50.998;4.754;2023-03-23T12:55:47;7.70;;;2.35;;
33714;SDS011;20043;50.998;4.754;2023-03-23T12:58:24;11.80;;;1.90;;
33714;SDS011;20043;50.998;4.754;2023-03-23T13:00:56;8.73;;;2.17;;
33714;SDS011;20043;50.998;4.754;2023-03-23T13:03:28;6.28;;;1.92;;
33714;SDS011;20043;50.998;4.754;2023-03-23T13:06:06;12.27;;;2.28;;
33714;SDS011;20043;50.998;4.754;2023-03-23T13:08:38;15.38;;;2.78;;
33714;SDS011;20043;50.998;4.754;2023-03-23T13:11:11;10.68;;;2.25;;
33714;SDS011;20043;50.998;4.754;2023-03-23T13:13:51;9.35;;;2.40;;
33714;SDS011;20043;50.998;4.754;2023-03-23T13:16:30;10.93;;;2.58;;
33714;SDS011;20043;50.998;4.754;2023-03-23T13:24:51;13.55;;;2.42;;
33714;SDS011;20043;50.998;4.754;2023-03-23T13:27:24;8.77;;;2.38;;
33714;SDS011;20043;50.998;4.754;2023-03-23T13:29:53;10.63;;;2.53;;
33714;SDS011;20043;50.998;4.754;2023-03-23T13:32:20;13.18;;;2.92;;
33714;SDS011;20043;50.998;4.754;2023-03-23T13:34:53;9.52;;;2.70;;
33714;SDS011;20043;50.998;4.754;2023-03-23T13:37:20;8.88;;;3.05;;
33714;SDS011;20043;50.998;4.754;2023-03-23T13:39:56;8.35;;;2.63;;
33714;SDS011;20043;50.998;4.754;2023-03-23T13:42:26;10.95;;;2.60;;
33714;SDS011;20043;50.998;4.754;2023-03-23T13:45:20;7.18;;;2.30;;
33714;SDS011;20043;50.998;4.754;2023-03-23T13:47:46;12.50;;;2.75;;
33714;SDS011;20043;50.998;4.754;2023-03-23T14:05:43;9.85;;;2.75;;
33714;SDS011;20043;50.998;4.754;2023-03-23T14:16:02;10.85;;;2.83;;
33714;SDS011;20043;50.998;4.754;2023-03-23T14:18:36;11.70;;;2.72;;
33714;SDS011;20043;50.998;4.754;2023-03-23T14:21:04;8.18;;;2.60;;
33714;SDS011;20043;50.998;4.754;2023-03-23T14:23:34;12.50;;;2.72;;
33714;SDS011;20043;50.998;4.754;2023-03-23T14:26:10;10.38;;;2.75;;
33714;SDS011;20043;50.998;4.754;2023-03-23T14:28:40;11.50;;;2.35;;
33714;SDS011;20043;50.998;4.754;2023-03-23T14:31:26;11.50;;;2.45;;
33714;SDS011;20043;50.998;4.754;2023-03-23T14:33:53;10.90;;;2.72;;
33714;SDS011;20043;50.998;4.754;2023-03-23T14:36:26;8.25;;;2.17;;
33714;SDS011;20043;50.998;4.754;2023-03-23T14:39:02;8.02;;;2.20;;
33714;SDS011;20043;50.998;4.754;2023-03-23T14:41:46;8.77;;;2.08;;
33714;SDS011;20043;50.998;4.754;2023-03-23T14:44:13;7.05;;;1.90;;
33714;SDS011;20043;50.998;4.754;2023-03-23T14:46:45;11.38;;;2.50;;
33714;SDS011;20043;50.998;4.754;2023-03-23T14:49:12;11.20;;;2.15;;
33714;SDS011;20043;50.998;4.754;2023-03-23T14:51:51;7.93;;;2.03;;
33714;SDS011;20043;50.998;4.754;2023-03-23T14:56:50;10.98;;;2.83;;
33714;SDS011;20043;50.998;4.754;2023-03-23T14:59:16;9.95;;;2.50;;
33714;SDS011;20043;50.998;4.754;2023-03-23T15:01:42;14.90;;;2.72;;
33714;SDS011;20043;50.998;4.754;2023-03-23T15:06:59;12.43;;;2.85;;
33714;SDS011;20043;50.998;4.754;2023-03-23T15:09:28;9.63;;;3.10;;
33714;SDS011;20043;50.998;4.754;2023-03-23T15:11:59;10.30;;;3.05;;
33714;SDS011;20043;50.998;4.754;2023-03-23T15:14:33;11.25;;;3.25;;
33714;SDS011;20043;50.998;4.754;2023-03-23T15:17:11;13.50;;;3.00;;
33714;SDS011;20043;50.998;4.754;2023-03-23T15:19:53;12.43;;;3.38;;
33714;SDS011;20043;50.998;4.754;2023-03-23T15:22:22;16.90;;;3.60;;
33714;SDS011;20043;50.998;4.754;2023-03-23T15:24:51;15.70;;;3.90;;
33714;SDS011;20043;50.998;4.754;2023-03-23T15:27:29;16.92;;;3.75;;
33714;SDS011;20043;50.998;4.754;2023-03-23T15:29:58;13.95;;;3.60;;
33714;SDS011;20043;50.998;4.754;2023-03-23T15:32:30;14.27;;;3.30;;
33714;SDS011;20043;50.998;4.754;2023-03-23T15:35:03;16.17;;;3.63;;
33714;SDS011;20043;50.998;4.754;2023-03-23T15:37:41;12.68;;;3.47;;
33714;SDS011;20043;50.998;4.754;2023-03-23T15:40:15;11.85;;;3.33;;
33714;SDS011;20043;50.998;4.754;2023-03-23T15:42:43;11.35;;;3.20;;
33714;SDS011;20043;50.998;4.754;2023-03-23T15:47:44;13.00;;;2.95;;
33714;SDS011;20043;50.998;4.754;2023-03-23T15:52:37;11.02;;;2.92;;
33714;SDS011;20043;50.998;4.754;2023-03-23T15:55:14;12.48;;;3.15;;
33714;SDS011;20043;50.998;4.754;2023-03-23T15:57:45;12.40;;;3.38;;
33714;SDS011;20043;50.998;4.754;2023-03-23T16:00:10;12.82;;;2.88;;
33714;SDS011;20043;50.998;4.754;2023-03-23T16:02:37;15.43;;;4.22;;
33714;SDS011;20043;50.998;4.754;2023-03-23T16:05:02;10.20;;;3.05;;
33714;SDS011;20043;50.998;4.754;2023-03-23T16:07:29;11.15;;;3.28;;
33714;SDS011;20043;50.998;4.754;2023-03-23T16:09:55;12.48;;;3.13;;
33714;SDS011;20043;50.998;4.754;2023-03-23T16:12:20;12.10;;;3.10;;
33714;SDS011;20043;50.998;4.754;2023-03-23T16:14:46;13.27;;;3.20;;
33714;SDS011;20043;50.998;4.754;2023-03-23T16:17:13;10.00;;;2.85;;
33714;SDS011;20043;50.998;4.754;2023-03-23T16:19:42;14.95;;;4.00;;
33714;SDS011;20043;50.998;4.754;2023-03-23T16:22:08;15.27;;;3.65;;
33714;SDS011;20043;50.998;4.754;2023-03-23T16:24:34;16.50;;;3.47;;
33714;SDS011;20043;50.998;4.754;2023-03-23T16:26:59;10.27;;;3.17;;
33714;SDS011;20043;50.998;4.754;2023-03-23T16:29:25;11.93;;;3.53;;
33714;SDS011;20043;50.998;4.754;2023-03-23T16:31:51;11.57;;;3.20;;
33714;SDS011;20043;50.998;4.754;2023-03-23T16:34:17;11.23;;;3.00;;
33714;SDS011;20043;50.998;4.754;2023-03-23T16:36:43;12.68;;;3.47;;
33714;SDS011;20043;50.998;4.754;2023-03-23T16:39:10;13.27;;;3.10;;
33714;SDS011;20043;50.998;4.754;2023-03-23T16:41:36;11.05;;;3.42;;
33714;SDS011;20043;50.998;4.754;2023-03-23T16:44:02;14.65;;;3.78;;
33714;SDS011;20043;50.998;4.754;2023-03-23T16:46:30;10.48;;;2.60;;
33714;SDS011;20043;50.998;4.754;2023-03-23T16:48:56;12.98;;;3.70;;
33714;SDS011;20043;50.998;4.754;2023-03-23T16:51:21;14.27;;;3.20;;
33714;SDS011;20043;50.998;4.754;2023-03-23T16:53:47;7.78;;;2.67;;
33714;SDS011;20043;50.998;4.754;2023-03-23T16:56:13;9.88;;;2.97;;
33714;SDS011;20043;50.998;4.754;2023-03-23T16:58:38;14.60;;;3.72;;
33714;SDS011;20043;50.998;4.754;2023-03-23T17:01:06;20.98;;;8.38;;
33714;SDS011;20043;50.998;4.754;2023-03-23T17:03:32;12.88;;;3.97;;
33714;SDS011;20043;50.998;4.754;2023-03-23T17:05:58;9.77;;;2.90;;
33714;SDS011;20043;50.998;4.754;2023-03-23T17:08:25;11.35;;;3.20;;